sensor_id;sensor_type;location;lat;lon;timestamp;pressure;altitude;pressure_sealevel;temperature;humidity
69316;BME280;56445;43.552;5.034;2023-05-19T07:23:01;101464.53;;;31.05;24.17
69316;BME280;56445;43.552;5.034;2023-05-19T07:25:29;101467.44;;;31.26;24.12
69316;BME280;56445;43.552;5.034;2023-05-19T07:27:56;101461.50;;;31.28;24.39
69316;BME280;56445;43.552;5.034;2023-05-19T07:30:25;101463.09;;;31.37;23.94
69316;BME280;56445;43.552;5.034;2023-05-19T07:32:52;101477.69;;;31.52;24.00
69316;BME280;56445;43.552;5.034;2023-05-19T07:35:19;101476.34;;;31.58;24.26
69316;BME280;56445;43.552;5.034;2023-05-19T07:37:48;101460.59;;;31.53;24.00
69316;BME280;56445;43.552;5.034;2023-05-19T07:40:15;101463.38;;;31.62;24.04
69316;BME280;56445;43.552;5.034;2023-05-19T07:42:43;101472.63;;;31.75;24.27
69316;BME280;56445;43.552;5.034;2023-05-19T07:45:10;101456.13;;;31.70;24.12
69316;BME280;56445;43.552;5.034;2023-05-19T07:47:37;101458.34;;;31.76;24.30
69316;BME280;56445;43.552;5.034;2023-05-19T07:50:05;101455.38;;;31.81;24.33
69316;BME280;56445;43.552;5.034;2023-05-19T07:52:32;101460.91;;;31.90;24.07
69316;BME280;56445;43.552;5.034;2023-05-19T07:55:00;101451.88;;;31.93;24.20
69316;BME280;56445;43.552;5.034;2023-05-19T07:57:27;101466.72;;;32.06;24.08
69316;BME280;56445;43.552;5.034;2023-05-19T07:59:54;101439.06;;;31.92;24.29
69316;BME280;56445;43.552;5.034;2023-05-19T08:02:21;101448.69;;;32.04;24.33
69316;BME280;56445;43.552;5.034;2023-05-19T08:04:48;101460.06;;;32.19;24.32
69316;BME280;56445;43.552;5.034;2023-05-19T08:07:15;101439.78;;;32.10;23.96
69316;BME280;56445;43.552;5.034;2023-05-19T08:09:43;101439.91;;;32.14;24.13
69316;BME280;56445;43.552;5.034;2023-05-19T08:12:10;101454.06;;;32.30;24.21
69316;BME280;56445;43.552;5.034;2023-05-19T08:14:37;101450.63;;;32.33;24.52
69316;BME280;56445;43.552;5.034;2023-05-19T08:17:04;101461.84;;;32.45;24.17
69316;BME280;56445;43.552;5.034;2023-05-19T08:19:31;101447.06;;;32.45;24.34
69316;BME280;56445;43.552;5.034;2023-05-19T08:21:58;101467.97;;;32.59;24.33
69316;BME280;56445;43.552;5.034;2023-05-19T08:24:27;101462.66;;;32.67;24.58
69316;BME280;56445;43.552;5.034;2023-05-19T08:26:58;101464.06;;;32.73;24.54
69316;BME280;56445;43.552;5.034;2023-05-19T08:29:25;101452.19;;;32.76;24.29
69316;BME280;56445;43.552;5.034;2023-05-19T08:31:52;101458.50;;;32.85;24.47
69316;BME280;56445;43.552;5.034;2023-05-19T08:34:20;101442.41;;;32.82;23.97
69316;BME280;56445;43.552;5.034;2023-05-19T08:36:48;101458.88;;;32.96;24.05
69316;BME280;56445;43.552;5.034;2023-05-19T08:39:15;101446.75;;;32.92;24.55
69316;BME280;56445;43.552;5.034;2023-05-19T08:41:44;101449.22;;;32.93;24.52
69316;BME280;56445;43.552;5.034;2023-05-19T08:44:11;101462.97;;;32.98;24.20
69316;BME280;56445;43.552;5.034;2023-05-19T08:46:38;101453.06;;;32.89;24.31
69316;BME280;56445;43.552;5.034;2023-05-19T08:49:10;101441.88;;;32.89;24.38
69316;BME280;56445;43.552;5.034;2023-05-19T08:52:05;101451.53;;;32.91;24.27
69316;BME280;56445;43.552;5.034;2023-05-19T08:54:45;101463.09;;;33.02;24.13
69316;BME280;56445;43.552;5.034;2023-05-19T08:57:13;101448.75;;;33.04;24.08
69316;BME280;56445;43.552;5.034;2023-05-19T08:59:42;101457.22;;;33.16;24.58
69316;BME280;56445;43.552;5.034;2023-05-19T09:02:10;101456.44;;;33.28;24.38
69316;BME280;56445;43.552;5.034;2023-05-19T09:04:39;101448.03;;;33.28;24.41
69316;BME280;56445;43.552;5.034;2023-05-19T09:07:07;101461.09;;;33.36;24.06
69316;BME280;56445;43.552;5.034;2023-05-19T09:09:35;101453.84;;;33.35;23.91
69316;BME280;56445;43.552;5.034;2023-05-19T09:12:03;101462.84;;;33.41;24.08
69316;BME280;56445;43.552;5.034;2023-05-19T09:14:31;101459.56;;;33.38;24.07
69316;BME280;56445;43.552;5.034;2023-05-19T09:16:59;101452.56;;;33.32;24.09
69316;BME280;56445;43.552;5.034;2023-05-19T09:19:30;101462.63;;;33.46;24.37
69316;BME280;56445;43.552;5.034;2023-05-19T09:22:01;101448.16;;;33.44;24.15
69316;BME280;56445;43.552;5.034;2023-05-19T09:24:32;101448.38;;;33.38;24.26
69316;BME280;56445;43.552;5.034;2023-05-19T09:27:00;101449.56;;;33.37;23.95
69316;BME280;56445;43.552;5.034;2023-05-19T09:29:27;101447.44;;;33.34;24.23
69316;BME280;56445;43.552;5.034;2023-05-19T09:31:55;101439.66;;;33.40;24.32
69316;BME280;56445;43.552;5.034;2023-05-19T09:34:32;101454.91;;;33.43;23.93
69316;BME280;56445;43.552;5.034;2023-05-19T09:36:59;101441.97;;;33.38;24.00
69316;BME280;56445;43.552;5.034;2023-05-19T09:39:26;101456.19;;;33.45;23.79
69316;BME280;56445;43.552;5.034;2023-05-19T09:41:55;101449.06;;;33.35;24.33
69316;BME280;56445;43.552;5.034;2023-05-19T09:44:25;101440.44;;;33.41;23.95
69316;BME280;56445;43.552;5.034;2023-05-19T09:46:56;101436.72;;;33.36;23.79
69316;BME280;56445;43.552;5.034;2023-05-19T09:49:25;101435.31;;;33.43;24.45
69316;BME280;56445;43.552;5.034;2023-05-19T09:51:57;101432.78;;;33.50;23.88
69316;BME280;56445;43.552;5.034;2023-05-19T09:54:25;101430.19;;;33.57;24.24
69316;BME280;56445;43.552;5.034;2023-05-19T09:56:59;101440.59;;;33.69;23.81
69316;BME280;56445;43.552;5.034;2023-05-19T09:59:27;101438.25;;;33.71;23.87
69316;BME280;56445;43.552;5.034;2023-05-19T10:02:00;101431.38;;;33.68;24.18
69316;BME280;56445;43.552;5.034;2023-05-19T10:04:29;101437.78;;;33.81;23.98
69316;BME280;56445;43.552;5.034;2023-05-19T10:06:57;101428.81;;;33.75;24.17
69316;BME280;56445;43.552;5.034;2023-05-19T10:09:27;101420.06;;;33.77;24.10
69316;BME280;56445;43.552;5.034;2023-05-19T10:11:55;101429.47;;;33.85;24.33
69316;BME280;56445;43.552;5.034;2023-05-19T10:14:27;101444.50;;;33.92;23.83
69316;BME280;56445;43.552;5.034;2023-05-19T10:16:58;101430.78;;;33.87;23.88
69316;BME280;56445;43.552;5.034;2023-05-19T10:19:27;101431.34;;;33.81;24.01
69316;BME280;56445;43.552;5.034;2023-05-19T10:21:55;101422.28;;;33.71;24.16
69316;BME280;56445;43.552;5.034;2023-05-19T10:24:22;101442.22;;;33.82;24.18
69316;BME280;56445;43.552;5.034;2023-05-19T10:27:16;101438.59;;;33.82;24.09
69316;BME280;56445;43.552;5.034;2023-05-19T10:29:48;101438.59;;;33.82;24.16
69316;BME280;56445;43.552;5.034;2023-05-19T10:32:19;101428.31;;;33.86;23.89
69316;BME280;56445;43.552;5.034;2023-05-19T10:35:14;101429.13;;;33.86;23.76
69316;BME280;56445;43.552;5.034;2023-05-19T10:37:56;101429.72;;;33.92;24.29
69316;BME280;56445;43.552;5.034;2023-05-19T10:40:32;101429.00;;;33.95;24.27
69316;BME280;56445;43.552;5.034;2023-05-19T10:43:09;101433.78;;;34.07;23.84
69316;BME280;56445;43.552;5.034;2023-05-19T10:45:52;101437.38;;;34.20;24.08
69316;BME280;56445;43.552;5.034;2023-05-19T10:48:19;101427.34;;;34.19;23.78
69316;BME280;56445;43.552;5.034;2023-05-19T10:50:53;101437.59;;;34.27;24.18
69316;BME280;56445;43.552;5.034;2023-05-19T10:53:21;101444.56;;;34.33;24.29
69316;BME280;56445;43.552;5.034;2023-05-19T10:55:53;101438.63;;;34.34;23.87
69316;BME280;56445;43.552;5.034;2023-05-19T10:58:38;101424.97;;;34.33;23.86
69316;BME280;56445;43.552;5.034;2023-05-19T11:01:12;101428.22;;;34.35;23.91
69316;BME280;56445;43.552;5.034;2023-05-19T11:03:54;101442.38;;;34.54;23.80
69316;BME280;56445;43.552;5.034;2023-05-19T11:06:28;101437.91;;;34.66;23.77
69316;BME280;56445;43.552;5.034;2023-05-19T11:08:57;101431.69;;;34.72;23.89
69316;BME280;56445;43.552;5.034;2023-05-19T11:11:45;101424.09;;;34.73;24.14
69316;BME280;56445;43.552;5.034;2023-05-19T11:14:15;101424.75;;;34.82;23.78
69316;BME280;56445;43.552;5.034;2023-05-19T11:16:46;101421.03;;;34.78;23.72
69316;BME280;56445;43.552;5.034;2023-05-19T11:19:27;101416.78;;;34.84;23.66
69316;BME280;56445;43.552;5.034;2023-05-19T11:21:55;101404.84;;;34.87;23.78
69316;BME280;56445;43.552;5.034;2023-05-19T11:24:34;101415.16;;;34.99;23.93
69316;BME280;56445;43.552;5.034;2023-05-19T11:27:22;101416.91;;;35.04;23.93
69316;BME280;56445;43.552;5.034;2023-05-19T11:29:50;101400.63;;;34.93;23.89
69316;BME280;56445;43.552;5.034;2023-05-19T11:32:19;101424.84;;;35.02;24.10
69316;BME280;56445;43.552;5.034;2023-05-19T11:34:48;101407.28;;;34.89;23.69
69316;BME280;56445;43.552;5.034;2023-05-19T11:37:16;101420.84;;;34.87;23.62
69316;BME280;56445;43.552;5.034;2023-05-19T11:39:44;101407.63;;;34.71;23.99
69316;BME280;56445;43.552;5.034;2023-05-19T11:42:12;101408.34;;;34.68;23.58
69316;BME280;56445;43.552;5.034;2023-05-19T11:44:39;101410.72;;;34.66;23.78
69316;BME280;56445;43.552;5.034;2023-05-19T11:47:07;101393.75;;;34.63;23.75
69316;BME280;56445;43.552;5.034;2023-05-19T11:49:35;101406.59;;;34.64;23.49
69316;BME280;56445;43.552;5.034;2023-05-19T11:52:03;101396.81;;;34.57;23.58
69316;BME280;56445;43.552;5.034;2023-05-19T11:54:32;101406.34;;;34.69;23.69
69316;BME280;56445;43.552;5.034;2023-05-19T11:57:03;101405.38;;;34.77;23.78
69316;BME280;56445;43.552;5.034;2023-05-19T11:59:32;101415.69;;;34.89;23.59
69316;BME280;56445;43.552;5.034;2023-05-19T12:02:24;101415.00;;;34.92;23.69
69316;BME280;56445;43.552;5.034;2023-05-19T12:04:53;101400.31;;;34.99;23.72
69316;BME280;56445;43.552;5.034;2023-05-19T12:07:24;101404.69;;;35.28;23.46
69316;BME280;56445;43.552;5.034;2023-05-19T12:09:52;101413.09;;;35.28;23.61
69316;BME280;56445;43.552;5.034;2023-05-19T12:12:21;101399.63;;;35.33;23.71
69316;BME280;56445;43.552;5.034;2023-05-19T12:14:50;101394.53;;;35.55;23.72
69316;BME280;56445;43.552;5.034;2023-05-19T12:17:19;101378.84;;;35.54;23.86
69316;BME280;56445;43.552;5.034;2023-05-19T12:19:48;101376.78;;;35.67;23.76
69316;BME280;56445;43.552;5.034;2023-05-19T12:22:16;101385.66;;;35.69;23.57
69316;BME280;56445;43.552;5.034;2023-05-19T12:24:44;101371.22;;;35.70;23.72
69316;BME280;56445;43.552;5.034;2023-05-19T12:27:18;101388.53;;;35.72;23.41
69316;BME280;56445;43.552;5.034;2023-05-19T12:29:49;101384.47;;;35.54;23.40
69316;BME280;56445;43.552;5.034;2023-05-19T12:32:24;101376.00;;;35.34;23.48
69316;BME280;56445;43.552;5.034;2023-05-19T12:34:54;101360.72;;;35.16;23.63
69316;BME280;56445;43.552;5.034;2023-05-19T12:37:25;101380.00;;;35.18;23.41
69316;BME280;56445;43.552;5.034;2023-05-19T12:39:54;101384.31;;;35.15;23.64
69316;BME280;56445;43.552;5.034;2023-05-19T12:42:22;101391.09;;;35.14;23.66
69316;BME280;56445;43.552;5.034;2023-05-19T12:44:50;101387.31;;;35.06;23.43
69316;BME280;56445;43.552;5.034;2023-05-19T12:47:19;101388.31;;;34.98;23.51
69316;BME280;56445;43.552;5.034;2023-05-19T12:52:27;101380.44;;;34.88;23.68
69316;BME280;56445;43.552;5.034;2023-05-19T12:54:59;101384.94;;;34.92;23.62
69316;BME280;56445;43.552;5.034;2023-05-19T12:57:27;101376.09;;;34.90;23.50
69316;BME280;56445;43.552;5.034;2023-05-19T13:00:12;101388.91;;;34.91;23.59
69316;BME280;56445;43.552;5.034;2023-05-19T13:02:59;101387.06;;;34.95;23.36
69316;BME280;56445;43.552;5.034;2023-05-19T13:05:29;101378.44;;;34.88;23.43
69316;BME280;56445;43.552;5.034;2023-05-19T13:07:57;101384.25;;;34.95;23.45
69316;BME280;56445;43.552;5.034;2023-05-19T13:10:26;101377.00;;;34.94;23.52
69316;BME280;56445;43.552;5.034;2023-05-19T13:12:57;101373.94;;;35.00;23.38
69316;BME280;56445;43.552;5.034;2023-05-19T13:15:28;101358.19;;;34.95;23.57
69316;BME280;56445;43.552;5.034;2023-05-19T13:17:59;101366.69;;;35.30;23.20
69316;BME280;56445;43.552;5.034;2023-05-19T13:20:26;101350.66;;;35.31;23.30
69316;BME280;56445;43.552;5.034;2023-05-19T13:22:54;101362.41;;;35.37;23.47
69316;BME280;56445;43.552;5.034;2023-05-19T13:25:21;101359.38;;;35.26;23.49
69316;BME280;56445;43.552;5.034;2023-05-19T13:27:49;101352.50;;;35.23;23.47
69316;BME280;56445;43.552;5.034;2023-05-19T13:30:17;101357.41;;;35.46;23.41
69316;BME280;56445;43.552;5.034;2023-05-19T13:32:44;101356.13;;;35.59;23.30
69316;BME280;56445;43.552;5.034;2023-05-19T13:35:13;101343.03;;;35.83;23.40
69316;BME280;56445;43.552;5.034;2023-05-19T13:37:41;101363.69;;;36.13;23.31
69316;BME280;56445;43.552;5.034;2023-05-19T13:40:09;101348.34;;;36.27;23.32
69316;BME280;56445;43.552;5.034;2023-05-19T13:42:36;101354.00;;;36.50;23.25
69316;BME280;56445;43.552;5.034;2023-05-19T13:45:04;101349.59;;;36.72;23.49
69316;BME280;56445;43.552;5.034;2023-05-19T13:47:31;101353.31;;;36.57;23.29
69316;BME280;56445;43.552;5.034;2023-05-19T13:49:58;101337.38;;;36.41;23.37
69316;BME280;56445;43.552;5.034;2023-05-19T13:52:25;101324.31;;;36.29;23.32
69316;BME280;56445;43.552;5.034;2023-05-19T13:54:56;101341.59;;;36.31;23.14
69316;BME280;56445;43.552;5.034;2023-05-19T13:57:23;101336.69;;;36.25;23.29
69316;BME280;56445;43.552;5.034;2023-05-19T13:59:53;101320.16;;;36.04;23.56
69316;BME280;56445;43.552;5.034;2023-05-19T14:02:28;101330.88;;;35.98;23.29
69316;BME280;56445;43.552;5.034;2023-05-19T14:04:56;101311.72;;;35.81;23.30
69316;BME280;56445;43.552;5.034;2023-05-19T14:07:23;101310.81;;;35.77;23.05
69316;BME280;56445;43.552;5.034;2023-05-19T14:09:51;101314.00;;;35.75;23.24
69316;BME280;56445;43.552;5.034;2023-05-19T14:12:18;101324.53;;;35.82;23.22
69316;BME280;56445;43.552;5.034;2023-05-19T14:14:53;101299.44;;;35.69;23.29
69316;BME280;56445;43.552;5.034;2023-05-19T14:17:20;101308.22;;;35.68;23.11
69316;BME280;56445;43.552;5.034;2023-05-19T14:19:47;101301.78;;;35.67;23.26
69316;BME280;56445;43.552;5.034;2023-05-19T14:22:14;101308.59;;;35.50;23.29
69316;BME280;56445;43.552;5.034;2023-05-19T14:24:42;101308.38;;;35.40;23.34
69316;BME280;56445;43.552;5.034;2023-05-19T14:27:09;101308.34;;;35.20;23.13
69316;BME280;56445;43.552;5.034;2023-05-19T14:29:36;101330.88;;;35.08;23.08
69316;BME280;56445;43.552;5.034;2023-05-19T14:32:03;101319.13;;;34.86;22.79
69316;BME280;56445;43.552;5.034;2023-05-19T14:34:31;101319.03;;;34.83;23.37
69316;BME280;56445;43.552;5.034;2023-05-19T14:36:58;101303.66;;;34.76;23.17
69316;BME280;56445;43.552;5.034;2023-05-19T14:39:25;101312.44;;;34.75;23.16
69316;BME280;56445;43.552;5.034;2023-05-19T14:41:53;101304.31;;;34.70;23.16
69316;BME280;56445;43.552;5.034;2023-05-19T14:44:20;101328.25;;;34.83;23.06
69316;BME280;56445;43.552;5.034;2023-05-19T14:46:47;101313.44;;;34.67;23.13
69316;BME280;56445;43.552;5.034;2023-05-19T14:49:14;101330.69;;;34.69;23.13
69316;BME280;56445;43.552;5.034;2023-05-19T14:51:41;101323.69;;;34.47;22.89
69316;BME280;56445;43.552;5.034;2023-05-19T14:54:08;101322.13;;;34.33;22.92
69316;BME280;56445;43.552;5.034;2023-05-19T14:56:35;101331.78;;;34.36;23.09
69316;BME280;56445;43.552;5.034;2023-05-19T14:59:02;101328.00;;;34.28;23.20
69316;BME280;56445;43.552;5.034;2023-05-19T15:01:30;101328.88;;;34.16;22.98
69316;BME280;56445;43.552;5.034;2023-05-19T15:03:57;101327.28;;;34.03;23.13
69316;BME280;56445;43.552;5.034;2023-05-19T15:06:24;101348.53;;;33.92;23.11
69316;BME280;56445;43.552;5.034;2023-05-19T15:08:51;101378.63;;;33.83;22.86
69316;BME280;56445;43.552;5.034;2023-05-19T15:11:19;101409.09;;;33.84;22.98
69316;BME280;56445;43.552;5.034;2023-05-19T15:13:46;101412.13;;;33.79;23.36
69316;BME280;56445;43.552;5.034;2023-05-19T15:16:13;101416.78;;;33.75;23.08
69316;BME280;56445;43.552;5.034;2023-05-19T15:18:43;101435.22;;;33.76;22.98
69316;BME280;56445;43.552;5.034;2023-05-19T15:21:10;101421.09;;;33.60;22.93
69316;BME280;56445;43.552;5.034;2023-05-19T15:23:38;101399.88;;;33.47;23.03
69316;BME280;56445;43.552;5.034;2023-05-19T15:26:05;101372.41;;;33.24;22.30
69316;BME280;56445;43.552;5.034;2023-05-19T15:28:32;101377.47;;;32.52;22.88
69316;BME280;56445;43.552;5.034;2023-05-19T15:31:00;101376.94;;;32.04;23.09
69316;BME280;56445;43.552;5.034;2023-05-19T15:33:27;101378.34;;;31.68;22.96
69316;BME280;56445;43.552;5.034;2023-05-19T15:35:54;101375.53;;;31.38;23.38
69316;BME280;56445;43.552;5.034;2023-05-19T15:38:22;101383.13;;;31.29;23.57
69316;BME280;56445;43.552;5.034;2023-05-19T15:40:50;101372.03;;;31.20;23.53
69316;BME280;56445;43.552;5.034;2023-05-19T15:43:17;101366.94;;;31.14;23.39
69316;BME280;56445;43.552;5.034;2023-05-19T15:45:45;101366.47;;;31.12;23.50
69316;BME280;56445;43.552;5.034;2023-05-19T15:48:13;101370.13;;;31.03;23.58
69316;BME280;56445;43.552;5.034;2023-05-19T15:50:40;101377.63;;;31.12;23.79
69316;BME280;56445;43.552;5.034;2023-05-19T15:53:07;101367.00;;;31.05;23.71
69316;BME280;56445;43.552;5.034;2023-05-19T15:55:36;101373.38;;;31.14;23.57
69316;BME280;56445;43.552;5.034;2023-05-19T15:58:03;101357.63;;;31.10;23.85
69316;BME280;56445;43.552;5.034;2023-05-19T16:00:30;101374.66;;;31.17;23.91
69316;BME280;56445;43.552;5.034;2023-05-19T16:02:57;101369.56;;;31.19;23.93
69316;BME280;56445;43.552;5.034;2023-05-19T16:05:25;101360.03;;;31.20;23.99
69316;BME280;56445;43.552;5.034;2023-05-19T16:07:52;101352.34;;;31.17;23.93
69316;BME280;56445;43.552;5.034;2023-05-19T16:10:19;101356.59;;;31.23;23.97
69316;BME280;56445;43.552;5.034;2023-05-19T16:12:46;101359.72;;;31.21;24.20
69316;BME280;56445;43.552;5.034;2023-05-19T16:15:13;101362.66;;;31.25;23.95
69316;BME280;56445;43.552;5.034;2023-05-19T16:17:40;101350.06;;;31.19;24.01
69316;BME280;56445;43.552;5.034;2023-05-19T16:20:08;101360.00;;;31.29;24.35
69316;BME280;56445;43.552;5.034;2023-05-19T16:22:35;101342.81;;;31.18;24.23
69316;BME280;56445;43.552;5.034;2023-05-19T16:25:03;101341.47;;;31.24;24.45
69316;BME280;56445;43.552;5.034;2023-05-19T16:27:30;101351.78;;;31.32;24.18
69316;BME280;56445;43.552;5.034;2023-05-19T16:29:57;101325.59;;;31.25;24.45
69316;BME280;56445;43.552;5.034;2023-05-19T16:32:26;101322.13;;;31.28;24.06
69316;BME280;56445;43.552;5.034;2023-05-19T16:34:53;101337.63;;;31.37;24.41
69316;BME280;56445;43.552;5.034;2023-05-19T16:37:21;101346.63;;;31.43;24.55
69316;BME280;56445;43.552;5.034;2023-05-19T16:39:48;101339.06;;;31.43;24.23
69316;BME280;56445;43.552;5.034;2023-05-19T16:42:15;101331.69;;;31.48;24.22
69316;BME280;56445;43.552;5.034;2023-05-19T16:44:42;101326.13;;;31.48;24.66
69316;BME280;56445;43.552;5.034;2023-05-19T16:47:09;101332.47;;;31.57;24.49
69316;BME280;56445;43.552;5.034;2023-05-19T16:49:36;101332.28;;;31.62;24.69
69316;BME280;56445;43.552;5.034;2023-05-19T16:52:06;101320.50;;;31.56;24.72
69316;BME280;56445;43.552;5.034;2023-05-19T16:54:33;101330.44;;;31.66;24.75
69316;BME280;56445;43.552;5.034;2023-05-19T16:57:01;101324.56;;;31.59;24.47
69316;BME280;56445;43.552;5.034;2023-05-19T16:59:28;101325.75;;;31.58;24.66
69316;BME280;56445;43.552;5.034;2023-05-19T17:01:55;101348.94;;;31.71;24.40
69316;BME280;56445;43.552;5.034;2023-05-19T17:04:22;101331.09;;;31.63;24.62
69316;BME280;56445;43.552;5.034;2023-05-19T17:06:50;101351.88;;;31.74;24.51
69316;BME280;56445;43.552;5.034;2023-05-19T17:09:17;101354.09;;;31.81;24.29
69316;BME280;56445;43.552;5.034;2023-05-19T17:11:51;101353.78;;;31.82;24.51
69316;BME280;56445;43.552;5.034;2023-05-19T17:14:20;101329.06;;;31.72;24.39
69316;BME280;56445;43.552;5.034;2023-05-19T17:16:47;101343.63;;;31.78;24.60
69316;BME280;56445;43.552;5.034;2023-05-19T17:19:14;101328.38;;;31.75;24.81
69316;BME280;56445;43.552;5.034;2023-05-19T17:21:41;101325.13;;;31.73;24.50
69316;BME280;56445;43.552;5.034;2023-05-19T17:24:09;101333.97;;;31.75;24.46
69316;BME280;56445;43.552;5.034;2023-05-19T17:26:36;101328.75;;;31.74;24.41
69316;BME280;56445;43.552;5.034;2023-05-19T17:29:03;101337.22;;;31.77;24.53
69316;BME280;56445;43.552;5.034;2023-05-19T17:31:31;101340.72;;;31.74;24.62
69316;BME280;56445;43.552;5.034;2023-05-19T17:33:58;101328.94;;;31.69;24.87
69316;BME280;56445;43.552;5.034;2023-05-19T17:36:25;101346.44;;;31.78;24.58
69316;BME280;56445;43.552;5.034;2023-05-19T17:38:52;101354.94;;;31.81;25.04
69316;BME280;56445;43.552;5.034;2023-05-19T17:41:20;101334.66;;;31.72;24.70
69316;BME280;56445;43.552;5.034;2023-05-19T17:43:47;101353.28;;;31.80;24.59
69316;BME280;56445;43.552;5.034;2023-05-19T17:46:14;101352.63;;;31.84;24.83
69316;BME280;56445;43.552;5.034;2023-05-19T17:48:42;101348.38;;;31.77;24.58
69316;BME280;56445;43.552;5.034;2023-05-19T17:51:09;101350.22;;;31.73;24.44
69316;BME280;56445;43.552;5.034;2023-05-19T17:53:37;101343.50;;;31.74;24.77
69316;BME280;56445;43.552;5.034;2023-05-19T17:56:05;101347.44;;;31.73;25.05
69316;BME280;56445;43.552;5.034;2023-05-19T17:58:34;101353.84;;;31.74;25.03
69316;BME280;56445;43.552;5.034;2023-05-19T18:01:02;101351.88;;;31.74;24.99
69316;BME280;56445;43.552;5.034;2023-05-19T18:03:29;101355.59;;;31.78;25.10
69316;BME280;56445;43.552;5.034;2023-05-19T18:05:57;101362.69;;;31.76;25.16
69316;BME280;56445;43.552;5.034;2023-05-19T18:08:25;101357.44;;;31.74;24.78
69316;BME280;56445;43.552;5.034;2023-05-19T18:10:54;101368.06;;;31.81;25.03
69316;BME280;56445;43.552;5.034;2023-05-19T18:13:22;101352.06;;;31.69;25.15
69316;BME280;56445;43.552;5.034;2023-05-19T18:15:50;101351.72;;;31.71;25.03
69316;BME280;56445;43.552;5.034;2023-05-19T18:18:18;101347.97;;;31.67;25.16
69316;BME280;56445;43.552;5.034;2023-05-19T18:20:45;101350.69;;;31.75;24.77
69316;BME280;56445;43.552;5.034;2023-05-19T18:23:13;101366.28;;;31.76;24.73
69316;BME280;56445;43.552;5.034;2023-05-19T18:25:46;101369.09;;;31.76;25.15
69316;BME280;56445;43.552;5.034;2023-05-19T18:28:14;101376.28;;;31.77;25.08
69316;BME280;56445;43.552;5.034;2023-05-19T18:30:41;101353.91;;;31.65;24.81
69316;BME280;56445;43.552;5.034;2023-05-19T18:33:09;101357.53;;;31.66;24.80
69316;BME280;56445;43.552;5.034;2023-05-19T18:35:36;101359.13;;;31.67;25.21
69316;BME280;56445;43.552;5.034;2023-05-19T18:38:03;101359.00;;;31.63;25.32
69316;BME280;56445;43.552;5.034;2023-05-19T18:40:30;101380.91;;;31.73;25.46
69316;BME280;56445;43.552;5.034;2023-05-19T18:42:58;101370.63;;;31.65;25.20
69316;BME280;56445;43.552;5.034;2023-05-19T18:45:25;101388.94;;;31.75;25.00
69316;BME280;56445;43.552;5.034;2023-05-19T18:47:52;101374.91;;;31.62;25.12
69316;BME280;56445;43.552;5.034;2023-05-19T18:50:19;101379.47;;;31.67;24.82
69316;BME280;56445;43.552;5.034;2023-05-19T18:52:47;101374.44;;;31.60;24.96
69316;BME280;56445;43.552;5.034;2023-05-19T18:55:14;101385.75;;;31.64;25.07
69316;BME280;56445;43.552;5.034;2023-05-19T18:57:41;101389.00;;;31.66;25.43
69316;BME280;56445;43.552;5.034;2023-05-19T19:00:09;101385.41;;;31.66;24.92
69316;BME280;56445;43.552;5.034;2023-05-19T19:02:36;101378.03;;;31.61;24.96
69316;BME280;56445;43.552;5.034;2023-05-19T19:05:04;101381.16;;;31.59;25.15
69316;BME280;56445;43.552;5.034;2023-05-19T19:07:41;101388.53;;;31.64;25.08
69316;BME280;56445;43.552;5.034;2023-05-19T19:10:10;101392.47;;;31.63;25.29
69316;BME280;56445;43.552;5.034;2023-05-19T19:12:37;101389.69;;;31.63;24.94
69316;BME280;56445;43.552;5.034;2023-05-19T19:15:05;101384.66;;;31.56;25.40
69316;BME280;56445;43.552;5.034;2023-05-19T19:17:32;101376.78;;;31.50;25.08
69316;BME280;56445;43.552;5.034;2023-05-19T19:19:59;101366.16;;;31.43;25.11
69316;BME280;56445;43.552;5.034;2023-05-19T19:22:26;101383.22;;;31.50;25.38
69316;BME280;56445;43.552;5.034;2023-05-19T19:24:54;101364.16;;;31.43;25.29
69316;BME280;56445;43.552;5.034;2023-05-19T19:27:21;101375.84;;;31.46;25.11
69316;BME280;56445;43.552;5.034;2023-05-19T19:29:50;101369.28;;;31.41;25.43
69316;BME280;56445;43.552;5.034;2023-05-19T19:32:17;101376.16;;;31.44;25.06
69316;BME280;56445;43.552;5.034;2023-05-19T19:34:44;101386.47;;;31.52;25.10
69316;BME280;56445;43.552;5.034;2023-05-19T19:37:11;101386.47;;;31.43;25.07
69316;BME280;56445;43.552;5.034;2023-05-19T19:39:40;101375.22;;;31.40;25.07
69316;BME280;56445;43.552;5.034;2023-05-19T19:42:07;101376.19;;;31.35;25.44
69316;BME280;56445;43.552;5.034;2023-05-19T19:44:34;101389.16;;;31.40;25.25
69316;BME280;56445;43.552;5.034;2023-05-19T19:47:01;101386.47;;;31.43;25.51
69316;BME280;56445;43.552;5.034;2023-05-19T19:49:32;101396.31;;;31.50;25.19
69316;BME280;56445;43.552;5.034;2023-05-19T19:51:59;101395.84;;;31.48;25.51
69316;BME280;56445;43.552;5.034;2023-05-19T19:54:26;101398.28;;;31.49;25.44
69316;BME280;56445;43.552;5.034;2023-05-19T19:56:54;101404.03;;;31.53;25.58
69316;BME280;56445;43.552;5.034;2023-05-19T19:59:23;101393.41;;;31.46;25.22
69316;BME280;56445;43.552;5.034;2023-05-19T20:01:52;101393.72;;;31.45;25.59
69316;BME280;56445;43.552;5.034;2023-05-19T20:04:19;101381.13;;;31.38;25.39
69316;BME280;56445;43.552;5.034;2023-05-19T20:06:46;101399.09;;;31.50;25.36
69316;BME280;56445;43.552;5.034;2023-05-19T20:09:15;101389.25;;;31.43;25.14
69316;BME280;56445;43.552;5.034;2023-05-19T20:11:42;101406.81;;;31.53;25.47
69316;BME280;56445;43.552;5.034;2023-05-19T20:14:09;101403.53;;;31.51;25.59
69316;BME280;56445;43.552;5.034;2023-05-19T20:16:36;101388.78;;;31.41;25.52
69316;BME280;56445;43.552;5.034;2023-05-19T20:19:04;101398.16;;;31.46;25.74
69316;BME280;56445;43.552;5.034;2023-05-19T20:21:34;101406.47;;;31.54;25.19
69316;BME280;56445;43.552;5.034;2023-05-19T20:24:01;101400.13;;;31.45;25.28